createdAt,value
2023-03-22T00:01:54.150Z,7.80
2023-03-22T00:04:20.423Z,7.82
2023-03-22T00:06:46.662Z,7.76
2023-03-22T00:09:12.935Z,7.75
2023-03-22T00:11:39.236Z,7.77
2023-03-22T00:14:05.480Z,7.82
2023-03-22T00:16:31.831Z,7.72
2023-03-22T00:18:58.134Z,7.75
2023-03-22T00:21:24.428Z,7.67
2023-03-22T00:23:50.700Z,7.49
2023-03-22T00:26:16.941Z,7.57
2023-03-22T00:28:43.174Z,7.60
2023-03-22T00:31:09.477Z,7.61
2023-03-22T00:33:35.745Z,7.52
2023-03-22T00:36:01.988Z,7.40
2023-03-22T00:38:41.413Z,7.42
2023-03-22T00:41:08.534Z,7.39
2023-03-22T00:43:34.829Z,7.53
2023-03-22T00:46:01.067Z,7.47
2023-03-22T00:48:27.326Z,7.51
2023-03-22T00:50:53.545Z,7.55
2023-03-22T00:53:19.783Z,7.54
2023-03-22T00:55:46.020Z,7.52
2023-03-22T00:58:12.280Z,7.58
2023-03-22T01:00:38.763Z,7.72
2023-03-22T01:03:05.161Z,7.71
2023-03-22T01:05:31.413Z,7.71
2023-03-22T01:07:57.668Z,7.58
2023-03-22T01:10:23.916Z,7.53
2023-03-22T01:12:50.164Z,7.59
2023-03-22T01:15:16.399Z,7.57
2023-03-22T01:17:42.654Z,7.50
2023-03-22T01:20:08.880Z,7.36
2023-03-22T01:22:35.305Z,7.36
2023-03-22T01:25:01.605Z,7.30
2023-03-22T01:27:27.820Z,7.32
2023-03-22T01:29:54.046Z,7.30
2023-03-22T01:32:20.302Z,7.19
2023-03-22T01:34:46.529Z,7.22
2023-03-22T01:37:12.757Z,7.18
2023-03-22T01:39:39.039Z,7.23
2023-03-22T01:42:05.292Z,7.19
2023-03-22T01:44:31.554Z,7.20
2023-03-22T01:46:57.815Z,7.21
2023-03-22T01:49:24.105Z,7.25
2023-03-22T01:51:50.372Z,7.30
2023-03-22T01:54:16.602Z,7.35
2023-03-22T01:56:42.928Z,7.37
2023-03-22T01:59:09.149Z,7.38
2023-03-22T02:01:35.401Z,7.40
2023-03-22T02:04:01.695Z,7.41
2023-03-22T02:06:27.945Z,7.30
2023-03-22T02:08:54.280Z,7.36
2023-03-22T02:11:20.547Z,7.20
2023-03-22T02:13:46.788Z,7.18
2023-03-22T02:16:13.111Z,7.11
2023-03-22T02:18:39.660Z,7.11
2023-03-22T02:21:05.889Z,7.13
2023-03-22T02:23:32.138Z,7.07
2023-03-22T02:25:58.371Z,7.03
2023-03-22T02:28:24.631Z,7.06
2023-03-22T02:30:50.922Z,7.06
2023-03-22T02:33:17.254Z,7.07
2023-03-22T02:35:43.604Z,7.07
2023-03-22T02:38:09.908Z,6.93
2023-03-22T02:40:36.137Z,6.91
2023-03-22T02:43:02.360Z,6.88
2023-03-22T02:45:28.588Z,6.90
2023-03-22T02:47:54.840Z,6.82
2023-03-22T02:50:21.088Z,6.77
2023-03-22T02:52:47.375Z,6.73
2023-03-22T02:55:13.664Z,6.73
2023-03-22T02:57:39.953Z,6.62
2023-03-22T03:00:06.181Z,6.66
2023-03-22T03:02:32.420Z,6.79
2023-03-22T03:04:59.407Z,6.88
2023-03-22T03:07:25.633Z,6.96
2023-03-22T03:09:51.886Z,7.09
2023-03-22T03:12:18.037Z,7.11
2023-03-22T03:14:44.185Z,7.21
2023-03-22T03:17:10.416Z,7.18
2023-03-22T03:19:36.657Z,7.08
2023-03-22T03:22:02.967Z,7.09
2023-03-22T03:24:29.195Z,7.09
2023-03-22T03:26:55.415Z,7.07
2023-03-22T03:29:21.731Z,7.11
2023-03-22T03:31:48.030Z,7.03
2023-03-22T03:34:14.286Z,7.04
2023-03-22T03:36:40.568Z,7.10
2023-03-22T03:39:06.801Z,7.05
2023-03-22T03:41:33.063Z,6.94
2023-03-22T03:43:59.315Z,6.93
2023-03-22T03:46:25.553Z,6.95
2023-03-22T03:48:51.818Z,6.87
2023-03-22T03:51:18.077Z,6.87
2023-03-22T03:53:44.343Z,6.86
2023-03-22T03:56:10.644Z,6.86
2023-03-22T03:58:36.930Z,6.71
2023-03-22T04:01:03.160Z,6.64
2023-03-22T04:03:29.413Z,6.74
2023-03-22T04:05:55.644Z,6.80
2023-03-22T04:08:21.952Z,6.88
2023-03-22T04:10:48.190Z,6.95
2023-03-22T04:13:14.453Z,6.90
2023-03-22T04:15:40.684Z,6.81
2023-03-22T04:18:06.922Z,6.72
2023-03-22T04:20:33.157Z,6.65
2023-03-22T04:22:59.408Z,6.71
2023-03-22T04:25:25.665Z,6.74
2023-03-22T04:27:51.925Z,6.83
2023-03-22T04:30:18.159Z,6.72
2023-03-22T04:32:44.456Z,6.69
2023-03-22T04:35:11.106Z,6.72
2023-03-22T04:37:37.366Z,6.70
2023-03-22T04:40:03.654Z,6.68
2023-03-22T04:42:29.894Z,6.66
2023-03-22T04:44:56.149Z,6.66
2023-03-22T04:47:22.406Z,6.73
2023-03-22T04:49:48.632Z,6.83
2023-03-22T04:52:14.883Z,6.90
2023-03-22T04:54:41.128Z,6.88
2023-03-22T04:57:07.377Z,6.88
2023-03-22T04:59:33.639Z,6.91
2023-03-22T05:01:59.969Z,6.89
2023-03-22T05:04:26.298Z,6.81
2023-03-22T05:06:52.636Z,6.72
2023-03-22T05:09:19.998Z,6.64
2023-03-22T05:11:47.758Z,6.56
2023-03-22T05:14:14.055Z,6.55
2023-03-22T05:16:40.296Z,6.51
2023-03-22T05:19:06.576Z,6.46
2023-03-22T05:21:32.853Z,6.49
2023-03-22T05:23:59.080Z,6.49
2023-03-22T05:26:25.337Z,6.52
2023-03-22T05:28:51.611Z,6.59
2023-03-22T05:31:17.935Z,6.58
2023-03-22T05:33:44.269Z,6.58
2023-03-22T05:36:10.520Z,6.62
2023-03-22T05:38:36.773Z,6.65
2023-03-22T05:41:03.087Z,6.64
2023-03-22T05:43:29.341Z,6.67
2023-03-22T05:45:55.620Z,6.67
2023-03-22T05:48:21.888Z,6.72
2023-03-22T05:50:48.152Z,6.70
2023-03-22T05:53:14.371Z,6.69
2023-03-22T05:55:40.754Z,6.62
2023-03-22T05:58:07.033Z,6.62
2023-03-22T06:00:33.296Z,6.60
2023-03-22T06:02:59.628Z,6.63
2023-03-22T06:05:25.924Z,6.57
2023-03-22T06:07:52.198Z,6.50
2023-03-22T06:10:18.460Z,6.45
2023-03-22T06:12:44.724Z,6.55
2023-03-22T06:15:10.986Z,6.52
2023-03-22T06:17:37.324Z,6.61
2023-03-22T06:20:03.566Z,6.62
2023-03-22T06:22:29.810Z,6.57
2023-03-22T06:24:56.103Z,6.51
2023-03-22T06:27:22.339Z,6.53
2023-03-22T06:29:48.629Z,6.61
2023-03-22T06:32:14.884Z,6.60
2023-03-22T06:34:41.121Z,6.60
2023-03-22T06:37:07.379Z,6.65
2023-03-22T06:39:33.616Z,6.72
2023-03-22T06:41:59.844Z,6.83
2023-03-22T06:44:26.096Z,6.89
2023-03-22T06:46:53.499Z,6.88
2023-03-22T06:49:19.755Z,6.91
2023-03-22T06:51:46.219Z,6.95
2023-03-22T06:54:12.612Z,6.97
2023-03-22T06:56:38.958Z,6.96
2023-03-22T06:59:05.185Z,6.98
2023-03-22T07:01:31.483Z,6.98
2023-03-22T07:03:57.788Z,7.04
2023-03-22T07:06:24.064Z,7.07
2023-03-22T07:08:51.962Z,7.09
2023-03-22T07:11:18.409Z,7.10
2023-03-22T07:13:44.853Z,7.22
2023-03-22T07:16:11.241Z,7.27
2023-03-22T07:18:37.517Z,7.38
2023-03-22T07:21:03.772Z,7.44
2023-03-22T07:23:30.013Z,7.62
2023-03-22T07:25:56.262Z,7.81
2023-03-22T07:28:22.521Z,7.98
2023-03-22T07:30:48.798Z,8.08
2023-03-22T07:33:15.058Z,8.27
2023-03-22T07:35:41.331Z,8.41
2023-03-22T07:38:07.657Z,8.55
2023-03-22T07:40:33.971Z,8.67
2023-03-22T07:43:00.248Z,8.77
2023-03-22T07:45:26.559Z,8.97
2023-03-22T07:47:52.890Z,9.08
2023-03-22T07:50:19.162Z,9.19
2023-03-22T07:52:45.423Z,9.19
2023-03-22T07:55:11.654Z,9.27
2023-03-22T07:57:38.055Z,9.43
2023-03-22T08:00:04.310Z,9.60
2023-03-22T08:02:30.568Z,9.65
2023-03-22T08:04:56.855Z,9.77
2023-03-22T08:07:23.200Z,9.81
2023-03-22T08:09:49.733Z,10.01
2023-03-22T08:12:16.182Z,10.09
2023-03-22T08:14:42.492Z,10.29
2023-03-22T08:17:08.806Z,10.38
2023-03-22T08:19:35.089Z,10.43
2023-03-22T08:22:01.346Z,10.29
2023-03-22T08:24:27.630Z,10.49
2023-03-22T08:26:54.118Z,10.63
2023-03-22T08:29:20.413Z,10.77
2023-03-22T08:31:46.791Z,10.88
2023-03-22T08:34:13.139Z,10.68
2023-03-22T08:36:39.487Z,10.80
2023-03-22T08:39:05.815Z,10.84
2023-03-22T08:41:32.082Z,10.89
2023-03-22T08:43:58.364Z,11.05
2023-03-22T08:46:24.659Z,11.16
2023-03-22T08:48:50.933Z,11.22
2023-03-22T08:51:18.914Z,11.33
2023-03-22T08:53:45.545Z,11.32
2023-03-22T08:56:11.799Z,10.75
2023-03-22T08:58:38.051Z,10.60
2023-03-22T09:01:04.397Z,10.69
2023-03-22T09:03:30.772Z,10.64
2023-03-22T09:05:57.022Z,10.67
2023-03-22T09:08:23.311Z,10.74
2023-03-22T09:10:49.566Z,10.64
2023-03-22T09:13:15.840Z,10.80
2023-03-22T09:15:43.554Z,10.57
2023-03-22T09:18:10.167Z,10.64
2023-03-22T09:20:36.586Z,10.78
2023-03-22T09:23:02.951Z,10.81
2023-03-22T09:25:29.198Z,10.85
2023-03-22T09:27:55.457Z,10.93
2023-03-22T09:30:23.311Z,11.11
2023-03-22T09:32:50.411Z,11.36
2023-03-22T09:35:16.705Z,11.41
2023-03-22T09:37:43.035Z,11.21
2023-03-22T09:40:09.355Z,11.37
2023-03-22T09:42:35.613Z,11.48
2023-03-22T09:45:01.882Z,11.37
2023-03-22T09:47:33.212Z,11.50
2023-03-22T09:50:08.631Z,11.72
2023-03-22T09:52:34.992Z,11.83
2023-03-22T09:55:01.391Z,11.76
2023-03-22T09:57:27.718Z,11.83
2023-03-22T09:59:54.104Z,12.10
2023-03-22T10:02:20.645Z,12.43
2023-03-22T10:04:47.025Z,12.70
2023-03-22T10:07:13.299Z,12.91
2023-03-22T10:09:39.530Z,12.99
2023-03-22T10:12:05.777Z,12.94
2023-03-22T10:14:32.031Z,13.11
2023-03-22T10:16:58.317Z,13.02
2023-03-22T10:19:24.571Z,13.06
2023-03-22T10:21:52.029Z,13.24
2023-03-22T10:24:18.350Z,13.48
2023-03-22T10:26:44.633Z,13.62
2023-03-22T10:29:10.914Z,13.82
2023-03-22T10:31:37.268Z,13.68
2023-03-22T10:34:03.702Z,13.72
2023-03-22T10:36:30.003Z,13.68
2023-03-22T10:38:56.258Z,13.62
2023-03-22T10:41:22.496Z,13.71
2023-03-22T10:43:48.817Z,13.71
2023-03-22T10:46:15.108Z,13.70
2023-03-22T10:48:41.364Z,13.89
2023-03-22T10:51:07.716Z,13.79
2023-03-22T10:53:33.976Z,13.75
2023-03-22T10:56:00.275Z,13.93
2023-03-22T10:58:26.511Z,14.04
2023-03-22T11:00:52.803Z,14.16
2023-03-22T11:03:19.762Z,14.25
2023-03-22T11:05:46.028Z,14.31
2023-03-22T11:08:12.338Z,14.32
2023-03-22T11:10:38.693Z,14.15
2023-03-22T11:13:04.980Z,14.30
2023-03-22T11:15:31.283Z,14.38
2023-03-22T11:17:57.517Z,14.37
2023-03-22T11:20:23.818Z,14.54
2023-03-22T11:22:50.084Z,14.45
2023-03-22T11:25:16.442Z,14.22
2023-03-22T11:27:42.749Z,14.11
2023-03-22T11:30:08.996Z,14.26
2023-03-22T11:32:35.325Z,14.35
2023-03-22T11:35:01.620Z,14.64
2023-03-22T11:37:27.971Z,14.70
2023-03-22T11:39:54.230Z,14.82
2023-03-22T11:42:20.505Z,14.94
2023-03-22T11:44:46.907Z,14.97
2023-03-22T11:47:13.194Z,15.19
2023-03-22T11:49:39.458Z,15.31
2023-03-22T11:52:05.720Z,15.47
2023-03-22T11:54:32.046Z,15.18
2023-03-22T11:56:58.351Z,15.19
2023-03-22T11:59:24.629Z,15.24
2023-03-22T12:01:50.894Z,15.22
2023-03-22T12:04:17.237Z,15.24
2023-03-22T12:06:43.546Z,15.52
2023-03-22T12:09:09.803Z,15.47
2023-03-22T12:11:36.075Z,15.56
2023-03-22T12:14:02.344Z,15.71
2023-03-22T12:16:28.782Z,15.74
2023-03-22T12:18:55.097Z,15.79
2023-03-22T12:21:21.429Z,15.79
2023-03-22T12:23:47.668Z,15.72
2023-03-22T12:26:13.920Z,15.70
2023-03-22T12:28:40.156Z,15.60
2023-03-22T12:31:06.400Z,15.81
2023-03-22T12:33:32.686Z,15.86
2023-03-22T12:35:59.042Z,15.95
2023-03-22T12:38:25.353Z,15.84
2023-03-22T12:40:53.924Z,15.68
2023-03-22T12:43:20.150Z,15.78
2023-03-22T12:45:46.452Z,15.96
2023-03-22T12:48:12.925Z,15.90
2023-03-22T12:50:39.463Z,16.06
2023-03-22T12:53:05.925Z,15.96
2023-03-22T12:55:32.175Z,15.90
2023-03-22T12:57:58.517Z,16.12
2023-03-22T13:00:24.780Z,16.18
2023-03-22T13:02:51.097Z,16.20
2023-03-22T13:05:17.450Z,16.24
2023-03-22T13:07:43.690Z,16.20
2023-03-22T13:10:09.934Z,16.22
2023-03-22T13:12:36.244Z,16.29
2023-03-22T13:15:02.484Z,16.28
2023-03-22T13:17:28.800Z,16.38
2023-03-22T13:19:55.100Z,16.45
2023-03-22T13:22:21.404Z,16.60
2023-03-22T13:24:47.664Z,16.56
2023-03-22T13:27:13.904Z,16.67
2023-03-22T13:29:40.130Z,16.75
2023-03-22T13:32:06.532Z,16.63
2023-03-22T13:34:32.848Z,16.59
2023-03-22T13:36:59.120Z,16.61
2023-03-22T13:39:25.354Z,16.68
2023-03-22T13:41:51.630Z,16.73
2023-03-22T13:44:17.927Z,16.86
2023-03-22T13:46:44.228Z,16.93
2023-03-22T13:49:10.521Z,16.92
2023-03-22T13:51:36.878Z,16.97
2023-03-22T13:54:03.147Z,17.08
2023-03-22T13:56:29.401Z,16.93
2023-03-22T13:58:55.655Z,16.89
2023-03-22T14:01:21.915Z,16.88
2023-03-22T14:03:48.281Z,16.78
2023-03-22T14:06:14.567Z,16.94
2023-03-22T14:08:40.790Z,17.01
2023-03-22T14:11:07.028Z,17.12
2023-03-22T14:13:33.283Z,16.91
2023-03-22T14:15:59.604Z,16.72
2023-03-22T14:18:25.885Z,16.88
2023-03-22T14:20:52.129Z,17.05
